sensor_id;sensor_type;location;lat;lon;timestamp;P1;durP1;ratioP1;P2;durP2;ratioP2
10005;SDS011;5042;42.626;23.382;2023-06-19T00:00:45;3.45;;;3.15;;
10005;SDS011;5042;42.626;23.382;2023-06-19T00:03:12;5.10;;;3.28;;
10005;SDS011;5042;42.626;23.382;2023-06-19T00:05:38;4.07;;;3.35;;
10005;SDS011;5042;42.626;23.382;2023-06-19T00:08:05;3.70;;;3.30;;
10005;SDS011;5042;42.626;23.382;2023-06-19T00:10:32;3.20;;;2.90;;
10005;SDS011;5042;42.626;23.382;2023-06-19T00:13:00;4.32;;;3.58;;
10005;SDS011;5042;42.626;23.382;2023-06-19T00:15:27;3.67;;;3.10;;
10005;SDS011;5042;42.626;23.382;2023-06-19T00:17:55;3.30;;;3.00;;
10005;SDS011;5042;42.626;23.382;2023-06-19T00:20:22;3.42;;;3.13;;
10005;SDS011;5042;42.626;23.382;2023-06-19T00:22:49;3.47;;;3.17;;
10005;SDS011;5042;42.626;23.382;2023-06-19T00:25:16;3.50;;;3.20;;
10005;SDS011;5042;42.626;23.382;2023-06-19T00:27:43;3.67;;;3.38;;
10005;SDS011;5042;42.626;23.382;2023-06-19T00:30:12;3.83;;;3.53;;
10005;SDS011;5042;42.626;23.382;2023-06-19T00:32:38;3.58;;;3.28;;
10005;SDS011;5042;42.626;23.382;2023-06-19T00:35:12;3.90;;;3.33;;
10005;SDS011;5042;42.626;23.382;2023-06-19T00:37:39;3.50;;;3.30;;
10005;SDS011;5042;42.626;23.382;2023-06-19T00:40:10;3.60;;;3.30;;
10005;SDS011;5042;42.626;23.382;2023-06-19T00:42:40;5.82;;;3.20;;
10005;SDS011;5042;42.626;23.382;2023-06-19T00:45:07;3.65;;;3.35;;
10005;SDS011;5042;42.626;23.382;2023-06-19T00:47:36;3.85;;;3.55;;
10005;SDS011;5042;42.626;23.382;2023-06-19T00:50:04;4.60;;;3.78;;
10005;SDS011;5042;42.626;23.382;2023-06-19T00:52:33;3.50;;;3.20;;
10005;SDS011;5042;42.626;23.382;2023-06-19T00:55:01;5.03;;;3.42;;
10005;SDS011;5042;42.626;23.382;2023-06-19T00:57:29;3.63;;;3.33;;
10005;SDS011;5042;42.626;23.382;2023-06-19T00:59:58;3.75;;;3.45;;
10005;SDS011;5042;42.626;23.382;2023-06-19T01:02:26;3.67;;;3.28;;
10005;SDS011;5042;42.626;23.382;2023-06-19T01:04:55;3.53;;;3.17;;
10005;SDS011;5042;42.626;23.382;2023-06-19T01:07:25;6.00;;;3.50;;
10005;SDS011;5042;42.626;23.382;2023-06-19T01:09:56;3.70;;;3.40;;
10005;SDS011;5042;42.626;23.382;2023-06-19T01:12:28;3.58;;;3.28;;
10005;SDS011;5042;42.626;23.382;2023-06-19T01:15:00;3.70;;;3.40;;
10005;SDS011;5042;42.626;23.382;2023-06-19T01:17:30;3.60;;;3.30;;
10005;SDS011;5042;42.626;23.382;2023-06-19T01:19:59;3.88;;;3.40;;
10005;SDS011;5042;42.626;23.382;2023-06-19T01:22:33;3.78;;;3.42;;
10005;SDS011;5042;42.626;23.382;2023-06-19T01:24:59;3.63;;;3.33;;
10005;SDS011;5042;42.626;23.382;2023-06-19T01:27:26;3.95;;;3.65;;
10005;SDS011;5042;42.626;23.382;2023-06-19T01:29:56;3.83;;;3.42;;
10005;SDS011;5042;42.626;23.382;2023-06-19T01:32:25;4.20;;;3.80;;
10005;SDS011;5042;42.626;23.382;2023-06-19T01:34:57;7.20;;;3.72;;
10005;SDS011;5042;42.626;23.382;2023-06-19T01:37:27;4.55;;;4.15;;
10005;SDS011;5042;42.626;23.382;2023-06-19T01:39:59;5.43;;;4.05;;
10005;SDS011;5042;42.626;23.382;2023-06-19T01:42:30;4.72;;;3.72;;
10005;SDS011;5042;42.626;23.382;2023-06-19T01:44:58;4.20;;;3.70;;
10005;SDS011;5042;42.626;23.382;2023-06-19T01:47:28;4.70;;;4.10;;
10005;SDS011;5042;42.626;23.382;2023-06-19T01:49:55;4.28;;;3.88;;
10005;SDS011;5042;42.626;23.382;2023-06-19T01:52:22;4.35;;;3.90;;
10005;SDS011;5042;42.626;23.382;2023-06-19T01:54:49;7.30;;;4.22;;
10005;SDS011;5042;42.626;23.382;2023-06-19T01:57:18;5.22;;;4.00;;
10005;SDS011;5042;42.626;23.382;2023-06-19T01:59:46;4.40;;;4.00;;
10005;SDS011;5042;42.626;23.382;2023-06-19T02:02:13;4.35;;;3.95;;
10005;SDS011;5042;42.626;23.382;2023-06-19T02:04:40;4.40;;;4.00;;
10005;SDS011;5042;42.626;23.382;2023-06-19T02:07:06;4.63;;;4.22;;
10005;SDS011;5042;42.626;23.382;2023-06-19T02:09:33;7.53;;;4.60;;
10005;SDS011;5042;42.626;23.382;2023-06-19T02:12:00;5.70;;;4.45;;
10005;SDS011;5042;42.626;23.382;2023-06-19T02:14:28;6.10;;;4.78;;
10005;SDS011;5042;42.626;23.382;2023-06-19T02:16:55;6.72;;;5.00;;
10005;SDS011;5042;42.626;23.382;2023-06-19T02:19:22;5.22;;;4.70;;
10005;SDS011;5042;42.626;23.382;2023-06-19T02:21:48;4.90;;;4.50;;
10005;SDS011;5042;42.626;23.382;2023-06-19T02:24:15;5.45;;;4.95;;
10005;SDS011;5042;42.626;23.382;2023-06-19T02:26:42;4.97;;;4.57;;
10005;SDS011;5042;42.626;23.382;2023-06-19T02:29:09;6.27;;;5.67;;
10005;SDS011;5042;42.626;23.382;2023-06-19T02:31:37;5.88;;;5.07;;
10005;SDS011;5042;42.626;23.382;2023-06-19T02:34:04;5.80;;;4.78;;
10005;SDS011;5042;42.626;23.382;2023-06-19T02:36:31;6.00;;;5.20;;
10005;SDS011;5042;42.626;23.382;2023-06-19T02:38:57;5.70;;;5.20;;
10005;SDS011;5042;42.626;23.382;2023-06-19T02:41:25;6.28;;;5.68;;
10005;SDS011;5042;42.626;23.382;2023-06-19T02:43:52;5.57;;;5.00;;
10005;SDS011;5042;42.626;23.382;2023-06-19T02:46:19;5.77;;;5.27;;
10005;SDS011;5042;42.626;23.382;2023-06-19T02:48:49;5.83;;;5.20;;
10005;SDS011;5042;42.626;23.382;2023-06-19T02:51:16;6.47;;;5.30;;
10005;SDS011;5042;42.626;23.382;2023-06-19T02:53:43;7.20;;;5.43;;
10005;SDS011;5042;42.626;23.382;2023-06-19T02:56:10;6.53;;;5.78;;
10005;SDS011;5042;42.626;23.382;2023-06-19T02:58:37;5.87;;;5.27;;
10005;SDS011;5042;42.626;23.382;2023-06-19T03:01:04;6.50;;;5.30;;
10005;SDS011;5042;42.626;23.382;2023-06-19T03:03:33;6.83;;;5.50;;
10005;SDS011;5042;42.626;23.382;2023-06-19T03:06:04;8.60;;;5.50;;
10005;SDS011;5042;42.626;23.382;2023-06-19T03:08:32;5.72;;;5.13;;
10005;SDS011;5042;42.626;23.382;2023-06-19T03:10:59;5.78;;;5.18;;
10005;SDS011;5042;42.626;23.382;2023-06-19T03:13:29;6.17;;;5.50;;
10005;SDS011;5042;42.626;23.382;2023-06-19T03:15:56;5.60;;;4.93;;
10005;SDS011;5042;42.626;23.382;2023-06-19T03:18:22;6.10;;;5.50;;
10005;SDS011;5042;42.626;23.382;2023-06-19T03:20:49;6.10;;;5.50;;
10005;SDS011;5042;42.626;23.382;2023-06-19T03:23:17;6.90;;;5.53;;
10005;SDS011;5042;42.626;23.382;2023-06-19T03:25:44;6.73;;;5.50;;
10005;SDS011;5042;42.626;23.382;2023-06-19T03:28:11;6.47;;;5.53;;
10005;SDS011;5042;42.626;23.382;2023-06-19T03:30:37;6.80;;;5.60;;
10005;SDS011;5042;42.626;23.382;2023-06-19T03:33:04;8.93;;;5.20;;
10005;SDS011;5042;42.626;23.382;2023-06-19T03:35:31;6.35;;;5.20;;
10005;SDS011;5042;42.626;23.382;2023-06-19T03:37:58;6.05;;;5.40;;
10005;SDS011;5042;42.626;23.382;2023-06-19T03:40:26;9.50;;;5.30;;
10005;SDS011;5042;42.626;23.382;2023-06-19T03:42:53;5.95;;;5.35;;
10005;SDS011;5042;42.626;23.382;2023-06-19T03:45:19;5.78;;;5.28;;
10005;SDS011;5042;42.626;23.382;2023-06-19T03:47:46;5.95;;;5.35;;
10005;SDS011;5042;42.626;23.382;2023-06-19T03:50:13;6.78;;;5.45;;
10005;SDS011;5042;42.626;23.382;2023-06-19T03:52:39;7.05;;;5.43;;
10005;SDS011;5042;42.626;23.382;2023-06-19T03:55:06;5.80;;;5.20;;
10005;SDS011;5042;42.626;23.382;2023-06-19T03:57:35;6.27;;;5.53;;
10005;SDS011;5042;42.626;23.382;2023-06-19T04:00:02;5.82;;;5.18;;
10005;SDS011;5042;42.626;23.382;2023-06-19T04:02:30;5.85;;;5.25;;
10005;SDS011;5042;42.626;23.382;2023-06-19T04:04:57;6.85;;;5.30;;
10005;SDS011;5042;42.626;23.382;2023-06-19T04:07:24;6.22;;;5.50;;
10005;SDS011;5042;42.626;23.382;2023-06-19T04:09:50;7.07;;;4.97;;
10005;SDS011;5042;42.626;23.382;2023-06-19T04:12:17;5.95;;;5.18;;
10005;SDS011;5042;42.626;23.382;2023-06-19T04:14:45;6.07;;;5.47;;
10005;SDS011;5042;42.626;23.382;2023-06-19T04:17:12;5.53;;;5.03;;
10005;SDS011;5042;42.626;23.382;2023-06-19T04:19:40;5.28;;;4.78;;
10005;SDS011;5042;42.626;23.382;2023-06-19T04:22:07;5.88;;;4.82;;
10005;SDS011;5042;42.626;23.382;2023-06-19T04:24:34;5.50;;;4.97;;
10005;SDS011;5042;42.626;23.382;2023-06-19T04:27:01;5.30;;;4.80;;
10005;SDS011;5042;42.626;23.382;2023-06-19T04:29:28;5.13;;;4.63;;
10005;SDS011;5042;42.626;23.382;2023-06-19T04:31:58;4.70;;;4.28;;
10005;SDS011;5042;42.626;23.382;2023-06-19T04:34:24;5.20;;;4.70;;
10005;SDS011;5042;42.626;23.382;2023-06-19T04:36:51;4.57;;;4.18;;
10005;SDS011;5042;42.626;23.382;2023-06-19T04:39:18;7.00;;;4.55;;
10005;SDS011;5042;42.626;23.382;2023-06-19T04:41:46;5.88;;;4.53;;
10005;SDS011;5042;42.626;23.382;2023-06-19T04:44:12;7.07;;;4.60;;
10005;SDS011;5042;42.626;23.382;2023-06-19T04:46:40;4.97;;;4.35;;
10005;SDS011;5042;42.626;23.382;2023-06-19T04:49:08;4.63;;;4.20;;
10005;SDS011;5042;42.626;23.382;2023-06-19T04:51:35;8.13;;;4.35;;
10005;SDS011;5042;42.626;23.382;2023-06-19T04:54:02;5.68;;;4.53;;
10005;SDS011;5042;42.626;23.382;2023-06-19T04:56:29;4.72;;;4.20;;
10005;SDS011;5042;42.626;23.382;2023-06-19T04:58:55;4.75;;;3.97;;
10005;SDS011;5042;42.626;23.382;2023-06-19T05:01:24;6.25;;;4.20;;
10005;SDS011;5042;42.626;23.382;2023-06-19T05:03:54;6.38;;;4.30;;
10005;SDS011;5042;42.626;23.382;2023-06-19T05:06:23;4.28;;;3.85;;
10005;SDS011;5042;42.626;23.382;2023-06-19T05:08:50;4.40;;;4.00;;
10005;SDS011;5042;42.626;23.382;2023-06-19T05:11:17;4.30;;;3.90;;
10005;SDS011;5042;42.626;23.382;2023-06-19T05:13:44;7.35;;;3.90;;
10005;SDS011;5042;42.626;23.382;2023-06-19T05:16:11;5.20;;;3.97;;
10005;SDS011;5042;42.626;23.382;2023-06-19T05:18:41;6.35;;;3.85;;
10005;SDS011;5042;42.626;23.382;2023-06-19T05:21:08;4.30;;;3.90;;
10005;SDS011;5042;42.626;23.382;2023-06-19T05:23:37;5.18;;;3.65;;
10005;SDS011;5042;42.626;23.382;2023-06-19T05:26:04;6.80;;;3.97;;
10005;SDS011;5042;42.626;23.382;2023-06-19T05:28:31;4.20;;;3.80;;
10005;SDS011;5042;42.626;23.382;2023-06-19T05:30:58;3.83;;;3.53;;
10005;SDS011;5042;42.626;23.382;2023-06-19T05:33:24;3.55;;;3.25;;
10005;SDS011;5042;42.626;23.382;2023-06-19T05:35:52;5.63;;;2.97;;
10005;SDS011;5042;42.626;23.382;2023-06-19T05:38:19;3.88;;;3.03;;
10005;SDS011;5042;42.626;23.382;2023-06-19T05:40:47;8.73;;;3.38;;
10005;SDS011;5042;42.626;23.382;2023-06-19T05:43:14;2.95;;;2.75;;
10005;SDS011;5042;42.626;23.382;2023-06-19T05:45:41;2.63;;;2.42;;
10005;SDS011;5042;42.626;23.382;2023-06-19T05:48:07;3.08;;;2.78;;
10005;SDS011;5042;42.626;23.382;2023-06-19T05:50:34;6.25;;;3.00;;
10005;SDS011;5042;42.626;23.382;2023-06-19T05:53:01;3.10;;;2.80;;
10005;SDS011;5042;42.626;23.382;2023-06-19T05:55:27;6.47;;;2.72;;
10005;SDS011;5042;42.626;23.382;2023-06-19T05:57:56;3.30;;;3.00;;
10005;SDS011;5042;42.626;23.382;2023-06-19T06:00:23;2.95;;;2.50;;
10005;SDS011;5042;42.626;23.382;2023-06-19T06:02:50;3.00;;;2.80;;
10005;SDS011;5042;42.626;23.382;2023-06-19T06:05:17;3.85;;;2.90;;
10005;SDS011;5042;42.626;23.382;2023-06-19T06:07:45;3.03;;;2.40;;
10005;SDS011;5042;42.626;23.382;2023-06-19T06:10:12;2.75;;;2.45;;
10005;SDS011;5042;42.626;23.382;2023-06-19T06:12:39;3.83;;;2.90;;
10005;SDS011;5042;42.626;23.382;2023-06-19T06:15:07;3.47;;;2.88;;
10005;SDS011;5042;42.626;23.382;2023-06-19T06:17:34;3.38;;;2.88;;
10005;SDS011;5042;42.626;23.382;2023-06-19T06:20:01;4.95;;;2.97;;
10005;SDS011;5042;42.626;23.382;2023-06-19T06:22:33;3.30;;;2.20;;
10005;SDS011;5042;42.626;23.382;2023-06-19T06:25:00;2.72;;;2.53;;
10005;SDS011;5042;42.626;23.382;2023-06-19T06:27:27;3.15;;;2.85;;
10005;SDS011;5042;42.626;23.382;2023-06-19T06:29:54;3.08;;;2.60;;
10005;SDS011;5042;42.626;23.382;2023-06-19T06:32:22;2.75;;;2.55;;
10005;SDS011;5042;42.626;23.382;2023-06-19T06:34:48;5.63;;;3.17;;
10005;SDS011;5042;42.626;23.382;2023-06-19T06:37:15;3.42;;;2.90;;
10005;SDS011;5042;42.626;23.382;2023-06-19T06:39:47;3.08;;;2.78;;
10005;SDS011;5042;42.626;23.382;2023-06-19T06:42:14;11.35;;;3.17;;
10005;SDS011;5042;42.626;23.382;2023-06-19T06:44:41;2.80;;;2.60;;
10005;SDS011;5042;42.626;23.382;2023-06-19T06:47:07;2.80;;;2.55;;
10005;SDS011;5042;42.626;23.382;2023-06-19T06:49:36;3.25;;;2.50;;
10005;SDS011;5042;42.626;23.382;2023-06-19T06:52:03;2.60;;;2.40;;
10005;SDS011;5042;42.626;23.382;2023-06-19T06:54:30;3.17;;;2.50;;
10005;SDS011;5042;42.626;23.382;2023-06-19T06:56:57;2.70;;;2.50;;
10005;SDS011;5042;42.626;23.382;2023-06-19T06:59:25;3.50;;;3.00;;
10005;SDS011;5042;42.626;23.382;2023-06-19T07:01:53;3.40;;;3.10;;
10005;SDS011;5042;42.626;23.382;2023-06-19T07:04:21;4.20;;;2.63;;
10005;SDS011;5042;42.626;23.382;2023-06-19T07:06:49;3.20;;;2.90;;
10005;SDS011;5042;42.626;23.382;2023-06-19T07:09:16;4.20;;;3.08;;
10005;SDS011;5042;42.626;23.382;2023-06-19T07:11:43;3.13;;;2.83;;
10005;SDS011;5042;42.626;23.382;2023-06-19T07:14:10;3.22;;;2.63;;
10005;SDS011;5042;42.626;23.382;2023-06-19T07:16:36;2.85;;;2.65;;
10005;SDS011;5042;42.626;23.382;2023-06-19T07:19:03;2.92;;;2.72;;
10005;SDS011;5042;42.626;23.382;2023-06-19T07:21:30;3.08;;;2.75;;
10005;SDS011;5042;42.626;23.382;2023-06-19T07:23:58;2.75;;;2.55;;
10005;SDS011;5042;42.626;23.382;2023-06-19T07:26:25;2.58;;;2.38;;
10005;SDS011;5042;42.626;23.382;2023-06-19T07:28:52;3.85;;;2.40;;
10005;SDS011;5042;42.626;23.382;2023-06-19T07:31:19;2.95;;;2.63;;
10005;SDS011;5042;42.626;23.382;2023-06-19T07:33:46;3.63;;;2.55;;
10005;SDS011;5042;42.626;23.382;2023-06-19T07:36:13;3.60;;;3.30;;
10005;SDS011;5042;42.626;23.382;2023-06-19T07:38:41;3.40;;;2.90;;
10005;SDS011;5042;42.626;23.382;2023-06-19T07:41:09;3.00;;;2.67;;
10005;SDS011;5042;42.626;23.382;2023-06-19T07:43:36;2.97;;;2.78;;
10005;SDS011;5042;42.626;23.382;2023-06-19T07:46:03;3.10;;;2.83;;
10005;SDS011;5042;42.626;23.382;2023-06-19T07:48:30;2.45;;;2.25;;
10005;SDS011;5042;42.626;23.382;2023-06-19T07:50:57;2.50;;;2.30;;
10005;SDS011;5042;42.626;23.382;2023-06-19T07:53:24;2.63;;;2.42;;
10005;SDS011;5042;42.626;23.382;2023-06-19T07:58:37;9.20;;;2.92;;
10005;SDS011;5042;42.626;23.382;2023-06-19T08:01:04;4.63;;;3.03;;
10005;SDS011;5042;42.626;23.382;2023-06-19T08:03:31;2.85;;;2.65;;
10005;SDS011;5042;42.626;23.382;2023-06-19T08:05:58;3.08;;;2.88;;
10005;SDS011;5042;42.626;23.382;2023-06-19T08:08:25;4.32;;;3.28;;
10005;SDS011;5042;42.626;23.382;2023-06-19T08:10:51;3.58;;;2.60;;
10005;SDS011;5042;42.626;23.382;2023-06-19T08:13:19;3.33;;;3.03;;
10005;SDS011;5042;42.626;23.382;2023-06-19T08:15:46;3.22;;;2.90;;
10005;SDS011;5042;42.626;23.382;2023-06-19T08:18:13;2.85;;;2.65;;
10005;SDS011;5042;42.626;23.382;2023-06-19T08:20:40;5.03;;;2.72;;
10005;SDS011;5042;42.626;23.382;2023-06-19T08:23:06;3.10;;;2.47;;
10005;SDS011;5042;42.626;23.382;2023-06-19T08:25:33;2.72;;;2.47;;
10005;SDS011;5042;42.626;23.382;2023-06-19T08:28:00;3.53;;;2.75;;
10005;SDS011;5042;42.626;23.382;2023-06-19T08:30:28;3.60;;;2.60;;
10005;SDS011;5042;42.626;23.382;2023-06-19T08:32:55;2.83;;;2.47;;
10005;SDS011;5042;42.626;23.382;2023-06-19T08:35:21;2.30;;;2.20;;
10005;SDS011;5042;42.626;23.382;2023-06-19T08:37:48;2.65;;;2.30;;
10005;SDS011;5042;42.626;23.382;2023-06-19T08:43:00;3.35;;;3.05;;
10005;SDS011;5042;42.626;23.382;2023-06-19T08:45:29;2.75;;;2.50;;
10005;SDS011;5042;42.626;23.382;2023-06-19T08:47:59;2.92;;;2.65;;
10005;SDS011;5042;42.626;23.382;2023-06-19T08:50:28;3.28;;;2.97;;
10005;SDS011;5042;42.626;23.382;2023-06-19T08:52:55;6.57;;;2.40;;
10005;SDS011;5042;42.626;23.382;2023-06-19T08:55:22;2.72;;;2.53;;
10005;SDS011;5042;42.626;23.382;2023-06-19T08:57:50;2.40;;;2.20;;
10005;SDS011;5042;42.626;23.382;2023-06-19T09:00:22;3.17;;;2.70;;
10005;SDS011;5042;42.626;23.382;2023-06-19T09:02:51;2.97;;;2.78;;
10005;SDS011;5042;42.626;23.382;2023-06-19T09:05:24;3.47;;;3.10;;
10005;SDS011;5042;42.626;23.382;2023-06-19T09:07:54;2.83;;;2.50;;
10005;SDS011;5042;42.626;23.382;2023-06-19T09:10:22;3.88;;;2.90;;
10005;SDS011;5042;42.626;23.382;2023-06-19T09:12:56;3.40;;;3.10;;
10005;SDS011;5042;42.626;23.382;2023-06-19T09:15:26;2.70;;;2.40;;
10005;SDS011;5042;42.626;23.382;2023-06-19T09:18:05;2.63;;;2.42;;
10005;SDS011;5042;42.626;23.382;2023-06-19T09:20:34;3.20;;;2.90;;
10005;SDS011;5042;42.626;23.382;2023-06-19T09:23:04;2.60;;;2.40;;
10005;SDS011;5042;42.626;23.382;2023-06-19T09:25:31;2.70;;;2.50;;
10005;SDS011;5042;42.626;23.382;2023-06-19T09:27:58;13.93;;;12.77;;
10005;SDS011;5042;42.626;23.382;2023-06-19T09:30:24;2.70;;;2.50;;
10005;SDS011;5042;42.626;23.382;2023-06-19T09:32:51;2.90;;;2.63;;
10005;SDS011;5042;42.626;23.382;2023-06-19T09:35:19;3.38;;;2.85;;
10005;SDS011;5042;42.626;23.382;2023-06-19T09:37:47;2.95;;;2.75;;
10005;SDS011;5042;42.626;23.382;2023-06-19T09:40:15;3.03;;;2.67;;
10005;SDS011;5042;42.626;23.382;2023-06-19T09:42:42;2.70;;;2.50;;
10005;SDS011;5042;42.626;23.382;2023-06-19T09:45:11;2.83;;;2.63;;
10005;SDS011;5042;42.626;23.382;2023-06-19T09:47:42;2.70;;;2.50;;
10005;SDS011;5042;42.626;23.382;2023-06-19T09:50:11;6.28;;;3.28;;
10005;SDS011;5042;42.626;23.382;2023-06-19T09:52:41;2.20;;;2.10;;
10005;SDS011;5042;42.626;23.382;2023-06-19T09:55:09;3.30;;;2.42;;
10005;SDS011;5042;42.626;23.382;2023-06-19T09:57:38;2.72;;;2.53;;
10005;SDS011;5042;42.626;23.382;2023-06-19T10:00:07;2.90;;;2.60;;
10005;SDS011;5042;42.626;23.382;2023-06-19T10:02:38;2.92;;;2.70;;
10005;SDS011;5042;42.626;23.382;2023-06-19T10:05:06;3.38;;;2.42;;
10005;SDS011;5042;42.626;23.382;2023-06-19T10:07:37;2.50;;;2.30;;
10005;SDS011;5042;42.626;23.382;2023-06-19T10:10:07;2.60;;;2.40;;
10005;SDS011;5042;42.626;23.382;2023-06-19T10:12:38;2.90;;;2.33;;
10005;SDS011;5042;42.626;23.382;2023-06-19T10:15:10;2.20;;;2.00;;
10005;SDS011;5042;42.626;23.382;2023-06-19T10:17:43;3.08;;;2.75;;
10005;SDS011;5042;42.626;23.382;2023-06-19T10:20:22;2.72;;;2.42;;
10005;SDS011;5042;42.626;23.382;2023-06-19T10:22:51;2.47;;;2.15;;
10005;SDS011;5042;42.626;23.382;2023-06-19T10:25:23;2.97;;;2.70;;
10005;SDS011;5042;42.626;23.382;2023-06-19T10:27:53;2.83;;;2.60;;
10005;SDS011;5042;42.626;23.382;2023-06-19T10:30:20;3.13;;;2.45;;
10005;SDS011;5042;42.626;23.382;2023-06-19T10:32:47;2.67;;;2.47;;
10005;SDS011;5042;42.626;23.382;2023-06-19T10:35:15;3.25;;;2.45;;
10005;SDS011;5042;42.626;23.382;2023-06-19T10:37:46;2.55;;;2.35;;
10005;SDS011;5042;42.626;23.382;2023-06-19T10:40:13;2.67;;;2.47;;
10005;SDS011;5042;42.626;23.382;2023-06-19T10:42:41;2.35;;;2.13;;
10005;SDS011;5042;42.626;23.382;2023-06-19T10:45:09;2.45;;;2.17;;
10005;SDS011;5042;42.626;23.382;2023-06-19T10:47:37;3.25;;;2.95;;
10005;SDS011;5042;42.626;23.382;2023-06-19T10:50:08;2.60;;;2.40;;
10005;SDS011;5042;42.626;23.382;2023-06-19T10:52:36;2.50;;;2.30;;
10005;SDS011;5042;42.626;23.382;2023-06-19T10:55:08;3.35;;;2.20;;
10005;SDS011;5042;42.626;23.382;2023-06-19T10:57:35;3.22;;;2.70;;
10005;SDS011;5042;42.626;23.382;2023-06-19T11:00:04;2.75;;;2.55;;
10005;SDS011;5042;42.626;23.382;2023-06-19T11:02:36;2.50;;;2.30;;
10005;SDS011;5042;42.626;23.382;2023-06-19T11:05:05;2.50;;;2.30;;
10005;SDS011;5042;42.626;23.382;2023-06-19T11:07:32;4.85;;;2.20;;
10005;SDS011;5042;42.626;23.382;2023-06-19T11:09:59;2.85;;;2.13;;
10005;SDS011;5042;42.626;23.382;2023-06-19T11:12:26;3.38;;;2.20;;
10005;SDS011;5042;42.626;23.382;2023-06-19T11:14:52;2.55;;;2.35;;
10005;SDS011;5042;42.626;23.382;2023-06-19T11:17:21;3.58;;;2.70;;
10005;SDS011;5042;42.626;23.382;2023-06-19T11:19:49;2.88;;;2.67;;
10005;SDS011;5042;42.626;23.382;2023-06-19T11:22:16;2.75;;;2.42;;
10005;SDS011;5042;42.626;23.382;2023-06-19T11:24:43;3.78;;;2.72;;
10005;SDS011;5042;42.626;23.382;2023-06-19T11:27:17;3.20;;;2.90;;
10005;SDS011;5042;42.626;23.382;2023-06-19T11:29:54;2.92;;;2.58;;
10005;SDS011;5042;42.626;23.382;2023-06-19T11:32:23;2.72;;;2.53;;
10005;SDS011;5042;42.626;23.382;2023-06-19T11:34:50;2.90;;;2.65;;
10005;SDS011;5042;42.626;23.382;2023-06-19T11:37:19;3.25;;;2.95;;
10005;SDS011;5042;42.626;23.382;2023-06-19T11:39:47;2.80;;;2.60;;
10005;SDS011;5042;42.626;23.382;2023-06-19T11:42:16;3.33;;;2.72;;
10005;SDS011;5042;42.626;23.382;2023-06-19T11:44:53;3.22;;;3.03;;
10005;SDS011;5042;42.626;23.382;2023-06-19T11:47:20;3.20;;;2.97;;
10005;SDS011;5042;42.626;23.382;2023-06-19T11:49:48;3.15;;;2.80;;
10005;SDS011;5042;42.626;23.382;2023-06-19T11:52:16;2.88;;;2.67;;
10005;SDS011;5042;42.626;23.382;2023-06-19T11:54:43;2.70;;;2.50;;
10005;SDS011;5042;42.626;23.382;2023-06-19T11:57:10;2.90;;;2.70;;
10005;SDS011;5042;42.626;23.382;2023-06-19T11:59:38;3.28;;;2.97;;
10005;SDS011;5042;42.626;23.382;2023-06-19T12:02:05;2.90;;;2.70;;
10005;SDS011;5042;42.626;23.382;2023-06-19T12:04:32;10.10;;;3.20;;
10005;SDS011;5042;42.626;23.382;2023-06-19T12:07:01;3.97;;;3.08;;
10005;SDS011;5042;42.626;23.382;2023-06-19T12:09:29;4.00;;;2.95;;
10005;SDS011;5042;42.626;23.382;2023-06-19T12:11:57;4.85;;;3.03;;
10005;SDS011;5042;42.626;23.382;2023-06-19T12:14:24;3.33;;;3.03;;
10005;SDS011;5042;42.626;23.382;2023-06-19T12:16:51;3.85;;;3.13;;
10005;SDS011;5042;42.626;23.382;2023-06-19T12:19:18;5.95;;;2.85;;
10005;SDS011;5042;42.626;23.382;2023-06-19T12:21:45;3.17;;;2.97;;
10005;SDS011;5042;42.626;23.382;2023-06-19T12:24:13;3.30;;;2.95;;
10005;SDS011;5042;42.626;23.382;2023-06-19T12:26:40;2.88;;;2.67;;
10005;SDS011;5042;42.626;23.382;2023-06-19T12:29:07;3.38;;;3.00;;
10005;SDS011;5042;42.626;23.382;2023-06-19T12:31:34;2.75;;;2.55;;
10005;SDS011;5042;42.626;23.382;2023-06-19T12:34:01;3.15;;;2.85;;
10005;SDS011;5042;42.626;23.382;2023-06-19T12:36:28;5.28;;;3.10;;
10005;SDS011;5042;42.626;23.382;2023-06-19T12:38:58;3.15;;;2.80;;
10005;SDS011;5042;42.626;23.382;2023-06-19T12:41:26;9.35;;;3.92;;
10005;SDS011;5042;42.626;23.382;2023-06-19T12:43:53;4.00;;;3.40;;
10005;SDS011;5042;42.626;23.382;2023-06-19T12:46:20;3.13;;;2.90;;
10005;SDS011;5042;42.626;23.382;2023-06-19T12:48:47;3.58;;;2.95;;
10005;SDS011;5042;42.626;23.382;2023-06-19T12:51:16;2.97;;;2.67;;
10005;SDS011;5042;42.626;23.382;2023-06-19T12:53:43;2.85;;;2.65;;
10005;SDS011;5042;42.626;23.382;2023-06-19T12:56:10;4.10;;;3.20;;
10005;SDS011;5042;42.626;23.382;2023-06-19T12:58:38;3.47;;;2.92;;
10005;SDS011;5042;42.626;23.382;2023-06-19T13:01:05;3.75;;;2.83;;
10005;SDS011;5042;42.626;23.382;2023-06-19T13:03:32;3.38;;;3.10;;
10005;SDS011;5042;42.626;23.382;2023-06-19T13:05:59;3.60;;;3.20;;
10005;SDS011;5042;42.626;23.382;2023-06-19T13:08:25;3.55;;;3.05;;
10005;SDS011;5042;42.626;23.382;2023-06-19T13:10:52;3.17;;;2.65;;
10005;SDS011;5042;42.626;23.382;2023-06-19T13:13:19;3.15;;;2.85;;
10005;SDS011;5042;42.626;23.382;2023-06-19T13:15:47;3.97;;;2.80;;
10005;SDS011;5042;42.626;23.382;2023-06-19T13:18:14;4.18;;;3.17;;
10005;SDS011;5042;42.626;23.382;2023-06-19T13:20:40;4.07;;;3.20;;
10005;SDS011;5042;42.626;23.382;2023-06-19T13:23:07;2.97;;;2.67;;
10005;SDS011;5042;42.626;23.382;2023-06-19T13:25:34;3.30;;;3.00;;
10005;SDS011;5042;42.626;23.382;2023-06-19T13:28:01;4.82;;;2.92;;
10005;SDS011;5042;42.626;23.382;2023-06-19T13:30:28;3.22;;;2.92;;
10005;SDS011;5042;42.626;23.382;2023-06-19T13:32:56;3.22;;;2.88;;
10005;SDS011;5042;42.626;23.382;2023-06-19T13:35:23;2.75;;;2.38;;
10005;SDS011;5042;42.626;23.382;2023-06-19T13:37:49;2.83;;;2.63;;
10005;SDS011;5042;42.626;23.382;2023-06-19T13:40:16;4.47;;;2.83;;
10005;SDS011;5042;42.626;23.382;2023-06-19T13:42:43;3.33;;;3.03;;
10005;SDS011;5042;42.626;23.382;2023-06-19T13:45:10;3.28;;;3.00;;
10005;SDS011;5042;42.626;23.382;2023-06-19T13:47:37;3.55;;;2.80;;
10005;SDS011;5042;42.626;23.382;2023-06-19T13:50:06;6.85;;;3.20;;
10005;SDS011;5042;42.626;23.382;2023-06-19T13:52:34;5.38;;;2.95;;
10005;SDS011;5042;42.626;23.382;2023-06-19T13:55:01;4.05;;;2.72;;
10005;SDS011;5042;42.626;23.382;2023-06-19T13:57:29;3.10;;;2.80;;
10005;SDS011;5042;42.626;23.382;2023-06-19T13:59:56;3.38;;;3.08;;
10005;SDS011;5042;42.626;23.382;2023-06-19T14:02:22;2.47;;;2.28;;
10005;SDS011;5042;42.626;23.382;2023-06-19T14:04:49;3.00;;;2.80;;
10005;SDS011;5042;42.626;23.382;2023-06-19T14:07:17;3.28;;;2.97;;
10005;SDS011;5042;42.626;23.382;2023-06-19T14:09:47;2.80;;;2.60;;
10005;SDS011;5042;42.626;23.382;2023-06-19T14:12:14;2.63;;;2.42;;
10005;SDS011;5042;42.626;23.382;2023-06-19T14:14:40;2.70;;;2.50;;
10005;SDS011;5042;42.626;23.382;2023-06-19T14:17:07;4.28;;;2.70;;
10005;SDS011;5042;42.626;23.382;2023-06-19T14:19:34;3.17;;;2.88;;
10005;SDS011;5042;42.626;23.382;2023-06-19T14:22:01;3.17;;;2.85;;
10005;SDS011;5042;42.626;23.382;2023-06-19T14:24:29;3.38;;;3.08;;
10005;SDS011;5042;42.626;23.382;2023-06-19T14:26:56;3.08;;;2.78;;
10005;SDS011;5042;42.626;23.382;2023-06-19T14:29:22;3.60;;;2.85;;
10005;SDS011;5042;42.626;23.382;2023-06-19T14:31:50;4.18;;;2.95;;
10005;SDS011;5042;42.626;23.382;2023-06-19T14:34:18;3.20;;;2.92;;
10005;SDS011;5042;42.626;23.382;2023-06-19T14:36:45;2.83;;;2.50;;
10005;SDS011;5042;42.626;23.382;2023-06-19T14:39:13;3.83;;;3.10;;
10005;SDS011;5042;42.626;23.382;2023-06-19T14:41:41;3.08;;;2.80;;
10005;SDS011;5042;42.626;23.382;2023-06-19T14:44:08;2.80;;;2.60;;
10005;SDS011;5042;42.626;23.382;2023-06-19T14:46:35;2.58;;;2.38;;
10005;SDS011;5042;42.626;23.382;2023-06-19T14:49:04;2.78;;;2.45;;
10005;SDS011;5042;42.626;23.382;2023-06-19T14:51:31;4.45;;;2.90;;
10005;SDS011;5042;42.626;23.382;2023-06-19T14:53:58;4.00;;;3.15;;
10005;SDS011;5042;42.626;23.382;2023-06-19T14:56:25;3.72;;;3.03;;